sensor_id;sensor_type;location;lat;lon;timestamp;P1;durP1;ratioP1;P2;durP2;ratioP2
21624;SDS011;10974;51.034;3.744;2023-07-31T03:39:13;10.53;;;3.80;;
21624;SDS011;10974;51.034;3.744;2023-07-31T03:41:39;4.93;;;3.13;;
21624;SDS011;10974;51.034;3.744;2023-07-31T03:44:05;5.83;;;3.20;;
21624;SDS011;10974;51.034;3.744;2023-07-31T03:46:31;6.50;;;3.30;;
21624;SDS011;10974;51.034;3.744;2023-07-31T03:48:58;6.17;;;3.27;;
21624;SDS011;10974;51.034;3.744;2023-07-31T03:51:24;8.00;;;3.30;;
21624;SDS011;10974;51.034;3.744;2023-07-31T03:53:50;4.73;;;2.90;;
21624;SDS011;10974;51.034;3.744;2023-07-31T03:56:16;6.57;;;3.30;;
21624;SDS011;10974;51.034;3.744;2023-07-31T03:58:42;5.77;;;2.97;;
21624;SDS011;10974;51.034;3.744;2023-07-31T04:01:08;6.53;;;2.93;;
21624;SDS011;10974;51.034;3.744;2023-07-31T04:03:34;5.73;;;2.90;;
21624;SDS011;10974;51.034;3.744;2023-07-31T04:06:00;6.13;;;2.80;;
21624;SDS011;10974;51.034;3.744;2023-07-31T04:08:26;6.43;;;3.70;;
21624;SDS011;10974;51.034;3.744;2023-07-31T04:10:52;8.57;;;3.63;;
21624;SDS011;10974;51.034;3.744;2023-07-31T04:13:18;7.33;;;3.60;;
21624;SDS011;10974;51.034;3.744;2023-07-31T04:15:48;6.60;;;3.43;;
21624;SDS011;10974;51.034;3.744;2023-07-31T04:18:15;7.20;;;3.00;;
21624;SDS011;10974;51.034;3.744;2023-07-31T04:20:41;8.67;;;4.20;;
21624;SDS011;10974;51.034;3.744;2023-07-31T04:23:07;7.57;;;3.40;;
21624;SDS011;10974;51.034;3.744;2023-07-31T04:25:34;6.90;;;3.30;;
21624;SDS011;10974;51.034;3.744;2023-07-31T04:28:00;13.93;;;3.33;;
21624;SDS011;10974;51.034;3.744;2023-07-31T04:30:26;7.70;;;3.27;;
21624;SDS011;10974;51.034;3.744;2023-07-31T04:32:52;5.97;;;2.67;;
21624;SDS011;10974;51.034;3.744;2023-07-31T04:35:18;7.80;;;2.57;;
21624;SDS011;10974;51.034;3.744;2023-07-31T04:37:44;2.80;;;2.50;;
21624;SDS011;10974;51.034;3.744;2023-07-31T04:40:14;8.20;;;2.53;;
21624;SDS011;10974;51.034;3.744;2023-07-31T04:42:40;2.87;;;2.27;;
21624;SDS011;10974;51.034;3.744;2023-07-31T04:45:07;4.43;;;2.87;;
21624;SDS011;10974;51.034;3.744;2023-07-31T04:47:33;5.87;;;2.53;;
21624;SDS011;10974;51.034;3.744;2023-07-31T04:49:59;4.77;;;3.13;;
21624;SDS011;10974;51.034;3.744;2023-07-31T04:52:25;4.00;;;2.40;;
21624;SDS011;10974;51.034;3.744;2023-07-31T04:54:51;4.87;;;2.80;;
21624;SDS011;10974;51.034;3.744;2023-07-31T04:57:17;4.03;;;2.10;;
21624;SDS011;10974;51.034;3.744;2023-07-31T04:59:43;3.40;;;2.83;;
21624;SDS011;10974;51.034;3.744;2023-07-31T05:02:11;4.93;;;3.17;;
21624;SDS011;10974;51.034;3.744;2023-07-31T05:04:38;4.57;;;2.70;;
21624;SDS011;10974;51.034;3.744;2023-07-31T05:07:04;6.00;;;3.00;;
21624;SDS011;10974;51.034;3.744;2023-07-31T05:09:30;7.07;;;2.73;;
21624;SDS011;10974;51.034;3.744;2023-07-31T05:11:56;7.40;;;2.97;;
21624;SDS011;10974;51.034;3.744;2023-07-31T05:14:22;3.10;;;2.60;;
21624;SDS011;10974;51.034;3.744;2023-07-31T05:16:48;5.73;;;3.07;;
21624;SDS011;10974;51.034;3.744;2023-07-31T05:19:14;5.33;;;2.70;;
21624;SDS011;10974;51.034;3.744;2023-07-31T05:21:40;4.57;;;2.53;;
21624;SDS011;10974;51.034;3.744;2023-07-31T05:24:06;4.80;;;2.50;;
21624;SDS011;10974;51.034;3.744;2023-07-31T05:26:32;2.93;;;2.10;;
21624;SDS011;10974;51.034;3.744;2023-07-31T05:28:58;6.60;;;3.07;;
21624;SDS011;10974;51.034;3.744;2023-07-31T05:31:24;3.87;;;2.77;;
21624;SDS011;10974;51.034;3.744;2023-07-31T05:33:50;5.60;;;2.90;;
21624;SDS011;10974;51.034;3.744;2023-07-31T05:36:17;2.97;;;2.50;;
21624;SDS011;10974;51.034;3.744;2023-07-31T05:38:43;3.63;;;2.60;;
21624;SDS011;10974;51.034;3.744;2023-07-31T05:41:10;4.67;;;3.10;;
21624;SDS011;10974;51.034;3.744;2023-07-31T05:43:37;4.03;;;3.10;;
21624;SDS011;10974;51.034;3.744;2023-07-31T05:46:03;4.33;;;2.63;;
21624;SDS011;10974;51.034;3.744;2023-07-31T05:48:29;4.47;;;2.93;;
21624;SDS011;10974;51.034;3.744;2023-07-31T05:50:55;4.43;;;2.73;;
21624;SDS011;10974;51.034;3.744;2023-07-31T05:53:21;4.00;;;2.67;;
21624;SDS011;10974;51.034;3.744;2023-07-31T05:55:47;3.10;;;2.43;;
21624;SDS011;10974;51.034;3.744;2023-07-31T05:58:13;4.90;;;3.37;;
21624;SDS011;10974;51.034;3.744;2023-07-31T06:00:39;2.83;;;2.13;;
21624;SDS011;10974;51.034;3.744;2023-07-31T06:03:06;3.10;;;2.27;;
21624;SDS011;10974;51.034;3.744;2023-07-31T06:05:32;5.17;;;2.50;;
21624;SDS011;10974;51.034;3.744;2023-07-31T06:07:58;6.47;;;3.00;;
21624;SDS011;10974;51.034;3.744;2023-07-31T06:10:24;5.63;;;3.07;;
21624;SDS011;10974;51.034;3.744;2023-07-31T06:12:50;3.80;;;2.80;;
21624;SDS011;10974;51.034;3.744;2023-07-31T06:15:16;4.33;;;2.30;;
21624;SDS011;10974;51.034;3.744;2023-07-31T06:17:45;7.43;;;2.40;;
21624;SDS011;10974;51.034;3.744;2023-07-31T06:20:11;6.33;;;3.20;;
21624;SDS011;10974;51.034;3.744;2023-07-31T06:22:38;4.07;;;2.57;;
21624;SDS011;10974;51.034;3.744;2023-07-31T06:25:04;5.93;;;3.00;;
21624;SDS011;10974;51.034;3.744;2023-07-31T06:27:30;4.50;;;2.70;;
21624;SDS011;10974;51.034;3.744;2023-07-31T06:29:56;7.93;;;3.00;;
21624;SDS011;10974;51.034;3.744;2023-07-31T06:32:22;6.60;;;3.60;;
21624;SDS011;10974;51.034;3.744;2023-07-31T06:34:48;7.00;;;3.17;;
21624;SDS011;10974;51.034;3.744;2023-07-31T06:37:15;2.80;;;2.23;;
21624;SDS011;10974;51.034;3.744;2023-07-31T06:39:41;5.40;;;2.60;;
21624;SDS011;10974;51.034;3.744;2023-07-31T06:42:07;3.20;;;2.50;;
21624;SDS011;10974;51.034;3.744;2023-07-31T06:44:33;4.57;;;2.80;;
21624;SDS011;10974;51.034;3.744;2023-07-31T06:46:59;6.03;;;2.37;;
21624;SDS011;10974;51.034;3.744;2023-07-31T06:49:25;3.80;;;2.57;;
21624;SDS011;10974;51.034;3.744;2023-07-31T06:51:51;4.20;;;2.47;;
21624;SDS011;10974;51.034;3.744;2023-07-31T06:54:17;7.13;;;2.80;;
21624;SDS011;10974;51.034;3.744;2023-07-31T06:56:43;7.77;;;3.23;;
21624;SDS011;10974;51.034;3.744;2023-07-31T06:59:10;2.90;;;2.00;;
21624;SDS011;10974;51.034;3.744;2023-07-31T07:01:36;8.23;;;3.70;;
21624;SDS011;10974;51.034;3.744;2023-07-31T07:04:02;7.60;;;3.87;;
21624;SDS011;10974;51.034;3.744;2023-07-31T07:06:28;5.63;;;3.80;;
21624;SDS011;10974;51.034;3.744;2023-07-31T07:08:54;7.67;;;3.80;;
21624;SDS011;10974;51.034;3.744;2023-07-31T07:11:20;6.20;;;3.53;;
21624;SDS011;10974;51.034;3.744;2023-07-31T07:13:46;6.73;;;3.20;;
21624;SDS011;10974;51.034;3.744;2023-07-31T07:16:12;6.97;;;3.40;;
21624;SDS011;10974;51.034;3.744;2023-07-31T07:18:38;7.70;;;3.70;;
21624;SDS011;10974;51.034;3.744;2023-07-31T07:21:04;11.80;;;4.17;;
21624;SDS011;10974;51.034;3.744;2023-07-31T07:23:30;4.83;;;3.20;;
21624;SDS011;10974;51.034;3.744;2023-07-31T07:25:56;4.83;;;3.50;;
21624;SDS011;10974;51.034;3.744;2023-07-31T07:28:22;5.67;;;3.40;;
21624;SDS011;10974;51.034;3.744;2023-07-31T07:30:52;7.17;;;3.77;;
21624;SDS011;10974;51.034;3.744;2023-07-31T07:33:21;6.27;;;3.40;;
21624;SDS011;10974;51.034;3.744;2023-07-31T07:35:47;4.93;;;3.57;;
21624;SDS011;10974;51.034;3.744;2023-07-31T07:38:14;6.20;;;3.67;;
21624;SDS011;10974;51.034;3.744;2023-07-31T07:40:40;9.07;;;3.30;;
21624;SDS011;10974;51.034;3.744;2023-07-31T07:43:06;8.87;;;3.50;;
21624;SDS011;10974;51.034;3.744;2023-07-31T07:45:33;4.80;;;3.07;;
21624;SDS011;10974;51.034;3.744;2023-07-31T07:47:59;7.07;;;3.20;;
21624;SDS011;10974;51.034;3.744;2023-07-31T07:50:25;8.30;;;3.50;;
21624;SDS011;10974;51.034;3.744;2023-07-31T07:52:51;6.13;;;3.27;;
21624;SDS011;10974;51.034;3.744;2023-07-31T07:55:17;4.60;;;3.17;;
21624;SDS011;10974;51.034;3.744;2023-07-31T07:57:43;6.00;;;3.27;;
21624;SDS011;10974;51.034;3.744;2023-07-31T08:00:10;5.33;;;3.30;;
21624;SDS011;10974;51.034;3.744;2023-07-31T08:02:36;6.20;;;3.17;;
21624;SDS011;10974;51.034;3.744;2023-07-31T08:05:02;5.90;;;3.10;;
21624;SDS011;10974;51.034;3.744;2023-07-31T08:07:28;4.63;;;3.00;;
21624;SDS011;10974;51.034;3.744;2023-07-31T08:09:54;9.60;;;3.30;;
21624;SDS011;10974;51.034;3.744;2023-07-31T08:12:20;5.80;;;2.90;;
21624;SDS011;10974;51.034;3.744;2023-07-31T08:14:46;4.30;;;3.17;;
21624;SDS011;10974;51.034;3.744;2023-07-31T08:17:12;6.23;;;3.47;;
21624;SDS011;10974;51.034;3.744;2023-07-31T08:19:38;10.23;;;2.60;;
21624;SDS011;10974;51.034;3.744;2023-07-31T08:22:04;3.10;;;2.50;;
21624;SDS011;10974;51.034;3.744;2023-07-31T08:24:31;5.00;;;3.20;;
21624;SDS011;10974;51.034;3.744;2023-07-31T08:26:57;4.77;;;2.57;;
21624;SDS011;10974;51.034;3.744;2023-07-31T08:29:23;4.03;;;3.00;;
21624;SDS011;10974;51.034;3.744;2023-07-31T08:31:50;4.00;;;2.53;;
21624;SDS011;10974;51.034;3.744;2023-07-31T08:34:16;3.03;;;2.73;;
21624;SDS011;10974;51.034;3.744;2023-07-31T08:36:42;5.27;;;2.87;;
21624;SDS011;10974;51.034;3.744;2023-07-31T08:39:08;3.80;;;2.30;;
21624;SDS011;10974;51.034;3.744;2023-07-31T08:41:38;6.00;;;3.10;;
21624;SDS011;10974;51.034;3.744;2023-07-31T08:44:04;3.50;;;2.80;;
21624;SDS011;10974;51.034;3.744;2023-07-31T08:46:31;5.57;;;2.70;;
21624;SDS011;10974;51.034;3.744;2023-07-31T08:48:58;5.43;;;2.30;;
21624;SDS011;10974;51.034;3.744;2023-07-31T08:51:25;4.27;;;2.77;;
21624;SDS011;10974;51.034;3.744;2023-07-31T08:53:52;3.03;;;2.57;;
21624;SDS011;10974;51.034;3.744;2023-07-31T08:56:18;2.70;;;2.30;;
21624;SDS011;10974;51.034;3.744;2023-07-31T08:58:45;3.63;;;2.63;;
21624;SDS011;10974;51.034;3.744;2023-07-31T09:01:12;2.97;;;2.50;;
21624;SDS011;10974;51.034;3.744;2023-07-31T09:03:38;3.07;;;2.30;;
21624;SDS011;10974;51.034;3.744;2023-07-31T09:06:04;4.20;;;2.93;;
21624;SDS011;10974;51.034;3.744;2023-07-31T09:08:31;8.33;;;2.93;;
21624;SDS011;10974;51.034;3.744;2023-07-31T09:11:01;5.60;;;2.83;;
21624;SDS011;10974;51.034;3.744;2023-07-31T09:13:29;3.40;;;2.67;;
21624;SDS011;10974;51.034;3.744;2023-07-31T09:15:56;3.10;;;2.80;;
21624;SDS011;10974;51.034;3.744;2023-07-31T09:18:22;3.10;;;2.57;;
21624;SDS011;10974;51.034;3.744;2023-07-31T09:21:06;4.77;;;3.03;;
21624;SDS011;10974;51.034;3.744;2023-07-31T09:23:42;6.43;;;2.83;;
21624;SDS011;10974;51.034;3.744;2023-07-31T09:26:09;5.00;;;2.83;;
21624;SDS011;10974;51.034;3.744;2023-07-31T09:28:35;4.80;;;2.87;;
21624;SDS011;10974;51.034;3.744;2023-07-31T09:31:01;5.40;;;3.17;;
21624;SDS011;10974;51.034;3.744;2023-07-31T09:33:27;5.00;;;3.20;;
21624;SDS011;10974;51.034;3.744;2023-07-31T09:35:53;4.00;;;2.87;;
21624;SDS011;10974;51.034;3.744;2023-07-31T09:38:19;6.60;;;3.70;;
21624;SDS011;10974;51.034;3.744;2023-07-31T09:40:47;5.57;;;3.53;;
21624;SDS011;10974;51.034;3.744;2023-07-31T09:43:14;6.83;;;3.33;;
21624;SDS011;10974;51.034;3.744;2023-07-31T09:45:43;5.50;;;3.30;;
21624;SDS011;10974;51.034;3.744;2023-07-31T09:48:10;5.40;;;3.20;;
21624;SDS011;10974;51.034;3.744;2023-07-31T09:50:39;6.07;;;3.53;;
21624;SDS011;10974;51.034;3.744;2023-07-31T09:53:06;6.93;;;3.90;;
21624;SDS011;10974;51.034;3.744;2023-07-31T09:55:32;4.53;;;3.50;;
21624;SDS011;10974;51.034;3.744;2023-07-31T09:57:58;7.50;;;3.73;;
21624;SDS011;10974;51.034;3.744;2023-07-31T10:00:25;3.37;;;3.07;;
21624;SDS011;10974;51.034;3.744;2023-07-31T10:02:53;5.40;;;2.87;;
21624;SDS011;10974;51.034;3.744;2023-07-31T10:05:20;5.07;;;2.73;;
21624;SDS011;10974;51.034;3.744;2023-07-31T10:07:51;3.80;;;3.33;;
21624;SDS011;10974;51.034;3.744;2023-07-31T10:10:17;4.27;;;2.90;;
21624;SDS011;10974;51.034;3.744;2023-07-31T10:12:45;6.43;;;2.57;;
21624;SDS011;10974;51.034;3.744;2023-07-31T10:15:12;4.70;;;2.70;;
21624;SDS011;10974;51.034;3.744;2023-07-31T10:17:38;4.10;;;2.83;;
21624;SDS011;10974;51.034;3.744;2023-07-31T10:20:04;5.40;;;3.30;;
21624;SDS011;10974;51.034;3.744;2023-07-31T10:22:32;5.53;;;2.97;;
21624;SDS011;10974;51.034;3.744;2023-07-31T10:24:59;3.67;;;2.80;;
21624;SDS011;10974;51.034;3.744;2023-07-31T10:27:25;4.53;;;3.27;;
21624;SDS011;10974;51.034;3.744;2023-07-31T10:29:52;4.10;;;2.63;;
21624;SDS011;10974;51.034;3.744;2023-07-31T10:32:19;4.40;;;2.93;;
21624;SDS011;10974;51.034;3.744;2023-07-31T10:34:46;2.97;;;2.00;;
21624;SDS011;10974;51.034;3.744;2023-07-31T10:39:57;1.93;;;1.83;;
21624;SDS011;10974;51.034;3.744;2023-07-31T10:42:30;2.53;;;2.30;;
21624;SDS011;10974;51.034;3.744;2023-07-31T10:45:00;2.70;;;1.93;;
21624;SDS011;10974;51.034;3.744;2023-07-31T10:47:27;1.97;;;1.77;;
21624;SDS011;10974;51.034;3.744;2023-07-31T10:50:10;4.10;;;2.40;;
21624;SDS011;10974;51.034;3.744;2023-07-31T10:52:36;3.90;;;2.07;;
21624;SDS011;10974;51.034;3.744;2023-07-31T10:57:47;5.57;;;2.50;;
21624;SDS011;10974;51.034;3.744;2023-07-31T11:00:20;2.53;;;2.10;;
21624;SDS011;10974;51.034;3.744;2023-07-31T11:10:42;2.30;;;2.10;;
21624;SDS011;10974;51.034;3.744;2023-07-31T11:13:09;3.60;;;2.47;;
21624;SDS011;10974;51.034;3.744;2023-07-31T11:15:35;2.83;;;2.37;;
21624;SDS011;10974;51.034;3.744;2023-07-31T11:18:01;2.67;;;2.27;;
21624;SDS011;10974;51.034;3.744;2023-07-31T11:20:34;3.93;;;2.63;;
21624;SDS011;10974;51.034;3.744;2023-07-31T11:23:01;2.83;;;2.00;;
21624;SDS011;10974;51.034;3.744;2023-07-31T11:25:30;3.30;;;2.63;;
21624;SDS011;10974;51.034;3.744;2023-07-31T11:27:57;3.37;;;2.40;;
21624;SDS011;10974;51.034;3.744;2023-07-31T11:30:23;5.50;;;2.87;;
21624;SDS011;10974;51.034;3.744;2023-07-31T11:32:49;5.20;;;2.60;;
21624;SDS011;10974;51.034;3.744;2023-07-31T11:35:16;7.73;;;3.50;;
21624;SDS011;10974;51.034;3.744;2023-07-31T11:37:43;8.03;;;2.83;;
21624;SDS011;10974;51.034;3.744;2023-07-31T11:40:09;3.80;;;3.10;;
21624;SDS011;10974;51.034;3.744;2023-07-31T11:42:36;4.80;;;3.23;;
21624;SDS011;10974;51.034;3.744;2023-07-31T11:45:02;3.90;;;2.90;;
21624;SDS011;10974;51.034;3.744;2023-07-31T11:47:29;5.07;;;3.03;;
21624;SDS011;10974;51.034;3.744;2023-07-31T11:49:55;4.10;;;2.70;;
21624;SDS011;10974;51.034;3.744;2023-07-31T11:52:21;4.20;;;2.90;;
21624;SDS011;10974;51.034;3.744;2023-07-31T11:54:48;2.90;;;2.50;;
21624;SDS011;10974;51.034;3.744;2023-07-31T11:57:15;5.00;;;2.73;;
21624;SDS011;10974;51.034;3.744;2023-07-31T11:59:41;6.43;;;3.40;;
21624;SDS011;10974;51.034;3.744;2023-07-31T12:02:08;5.17;;;3.20;;
21624;SDS011;10974;51.034;3.744;2023-07-31T12:04:35;3.23;;;2.73;;
21624;SDS011;10974;51.034;3.744;2023-07-31T12:07:01;6.40;;;3.40;;
21624;SDS011;10974;51.034;3.744;2023-07-31T12:09:27;5.20;;;3.47;;
21624;SDS011;10974;51.034;3.744;2023-07-31T12:11:53;5.07;;;3.40;;
21624;SDS011;10974;51.034;3.744;2023-07-31T12:14:20;5.90;;;3.40;;
21624;SDS011;10974;51.034;3.744;2023-07-31T12:16:47;4.90;;;3.63;;
21624;SDS011;10974;51.034;3.744;2023-07-31T12:19:13;5.70;;;3.47;;
21624;SDS011;10974;51.034;3.744;2023-07-31T12:21:39;6.70;;;3.80;;
21624;SDS011;10974;51.034;3.744;2023-07-31T12:24:05;5.60;;;3.10;;
21624;SDS011;10974;51.034;3.744;2023-07-31T12:26:34;7.27;;;3.43;;
21624;SDS011;10974;51.034;3.744;2023-07-31T12:29:00;6.00;;;3.80;;
21624;SDS011;10974;51.034;3.744;2023-07-31T12:31:27;3.27;;;2.87;;
21624;SDS011;10974;51.034;3.744;2023-07-31T12:33:54;3.30;;;2.87;;
21624;SDS011;10974;51.034;3.744;2023-07-31T12:36:24;4.23;;;3.20;;
21624;SDS011;10974;51.034;3.744;2023-07-31T12:38:50;6.40;;;2.60;;
21624;SDS011;10974;51.034;3.744;2023-07-31T12:41:17;5.23;;;3.00;;
21624;SDS011;10974;51.034;3.744;2023-07-31T12:43:43;6.50;;;3.73;;
21624;SDS011;10974;51.034;3.744;2023-07-31T12:46:10;6.47;;;3.13;;
21624;SDS011;10974;51.034;3.744;2023-07-31T12:48:37;6.80;;;3.20;;
21624;SDS011;10974;51.034;3.744;2023-07-31T12:51:03;3.80;;;2.80;;
21624;SDS011;10974;51.034;3.744;2023-07-31T12:53:29;2.83;;;2.00;;
21624;SDS011;10974;51.034;3.744;2023-07-31T12:55:56;3.73;;;2.37;;
21624;SDS011;10974;51.034;3.744;2023-07-31T12:58:22;2.40;;;1.90;;
21624;SDS011;10974;51.034;3.744;2023-07-31T13:00:49;4.67;;;2.70;;
21624;SDS011;10974;51.034;3.744;2023-07-31T13:03:15;3.37;;;2.50;;
21624;SDS011;10974;51.034;3.744;2023-07-31T13:05:42;3.53;;;2.43;;
21624;SDS011;10974;51.034;3.744;2023-07-31T13:08:08;2.10;;;1.90;;
21624;SDS011;10974;51.034;3.744;2023-07-31T13:10:34;6.30;;;2.90;;
21624;SDS011;10974;51.034;3.744;2023-07-31T13:13:00;2.70;;;2.07;;
21624;SDS011;10974;51.034;3.744;2023-07-31T13:15:26;2.40;;;2.20;;
21624;SDS011;10974;51.034;3.744;2023-07-31T13:17:52;1.87;;;1.70;;
21624;SDS011;10974;51.034;3.744;2023-07-31T13:20:18;4.07;;;2.60;;
21624;SDS011;10974;51.034;3.744;2023-07-31T13:22:44;4.20;;;2.23;;
21624;SDS011;10974;51.034;3.744;2023-07-31T13:25:10;3.73;;;1.90;;
21624;SDS011;10974;51.034;3.744;2023-07-31T13:27:36;2.03;;;1.67;;
21624;SDS011;10974;51.034;3.744;2023-07-31T13:30:02;2.30;;;1.90;;
21624;SDS011;10974;51.034;3.744;2023-07-31T13:32:29;1.50;;;1.40;;
21624;SDS011;10974;51.034;3.744;2023-07-31T13:34:55;1.73;;;1.60;;
21624;SDS011;10974;51.034;3.744;2023-07-31T13:37:21;2.03;;;1.30;;
21624;SDS011;10974;51.034;3.744;2023-07-31T13:39:47;1.97;;;1.77;;
21624;SDS011;10974;51.034;3.744;2023-07-31T13:42:13;4.00;;;1.90;;
21624;SDS011;10974;51.034;3.744;2023-07-31T13:44:40;3.10;;;1.50;;
21624;SDS011;10974;51.034;3.744;2023-07-31T13:47:06;3.30;;;1.70;;
21624;SDS011;10974;51.034;3.744;2023-07-31T13:49:33;3.00;;;1.53;;
21624;SDS011;10974;51.034;3.744;2023-07-31T13:51:59;1.57;;;1.47;;
21624;SDS011;10974;51.034;3.744;2023-07-31T13:54:25;1.97;;;1.47;;
21624;SDS011;10974;51.034;3.744;2023-07-31T13:56:52;1.80;;;1.70;;
21624;SDS011;10974;51.034;3.744;2023-07-31T13:59:18;3.10;;;1.70;;
21624;SDS011;10974;51.034;3.744;2023-07-31T14:01:44;3.60;;;1.90;;
21624;SDS011;10974;51.034;3.744;2023-07-31T14:04:10;2.03;;;1.83;;
21624;SDS011;10974;51.034;3.744;2023-07-31T14:06:37;3.37;;;2.30;;
21624;SDS011;10974;51.034;3.744;2023-07-31T14:09:03;2.53;;;1.80;;
21624;SDS011;10974;51.034;3.744;2023-07-31T14:11:30;4.43;;;2.10;;
21624;SDS011;10974;51.034;3.744;2023-07-31T14:13:56;3.87;;;2.23;;
21624;SDS011;10974;51.034;3.744;2023-07-31T14:16:22;2.47;;;2.10;;
21624;SDS011;10974;51.034;3.744;2023-07-31T14:18:48;4.43;;;2.23;;
21624;SDS011;10974;51.034;3.744;2023-07-31T14:21:14;2.23;;;2.00;;
21624;SDS011;10974;51.034;3.744;2023-07-31T14:23:41;4.80;;;2.20;;
21624;SDS011;10974;51.034;3.744;2023-07-31T14:26:07;3.50;;;2.10;;
21624;SDS011;10974;51.034;3.744;2023-07-31T14:28:33;5.03;;;1.93;;
21624;SDS011;10974;51.034;3.744;2023-07-31T14:30:59;2.63;;;2.00;;
21624;SDS011;10974;51.034;3.744;2023-07-31T14:33:25;1.87;;;1.77;;
21624;SDS011;10974;51.034;3.744;2023-07-31T14:35:51;2.60;;;1.83;;
21624;SDS011;10974;51.034;3.744;2023-07-31T14:38:17;3.50;;;2.23;;
21624;SDS011;10974;51.034;3.744;2023-07-31T14:40:44;6.73;;;2.13;;
21624;SDS011;10974;51.034;3.744;2023-07-31T14:43:10;3.87;;;1.93;;
21624;SDS011;10974;51.034;3.744;2023-07-31T14:45:36;3.37;;;1.87;;
21624;SDS011;10974;51.034;3.744;2023-07-31T14:48:02;4.63;;;2.10;;
21624;SDS011;10974;51.034;3.744;2023-07-31T14:50:28;2.00;;;1.33;;
21624;SDS011;10974;51.034;3.744;2023-07-31T14:52:54;2.63;;;1.90;;
21624;SDS011;10974;51.034;3.744;2023-07-31T14:55:20;2.67;;;1.70;;
21624;SDS011;10974;51.034;3.744;2023-07-31T14:57:46;2.03;;;1.57;;
21624;SDS011;10974;51.034;3.744;2023-07-31T15:00:13;2.20;;;1.70;;
21624;SDS011;10974;51.034;3.744;2023-07-31T15:02:40;2.10;;;1.70;;
21624;SDS011;10974;51.034;3.744;2023-07-31T15:05:06;2.53;;;1.50;;
21624;SDS011;10974;51.034;3.744;2023-07-31T15:07:33;4.13;;;2.00;;
21624;SDS011;10974;51.034;3.744;2023-07-31T15:09:59;2.07;;;1.27;;
21624;SDS011;10974;51.034;3.744;2023-07-31T15:12:25;2.40;;;1.30;;
21624;SDS011;10974;51.034;3.744;2023-07-31T15:14:52;1.30;;;1.20;;
21624;SDS011;10974;51.034;3.744;2023-07-31T15:17:18;1.30;;;1.20;;
21624;SDS011;10974;51.034;3.744;2023-07-31T15:19:44;1.63;;;1.40;;
21624;SDS011;10974;51.034;3.744;2023-07-31T15:22:10;1.30;;;1.20;;
21624;SDS011;10974;51.034;3.744;2023-07-31T15:24:37;1.43;;;1.33;;
21624;SDS011;10974;51.034;3.744;2023-07-31T15:27:03;3.43;;;1.30;;
21624;SDS011;10974;51.034;3.744;2023-07-31T15:29:29;1.77;;;1.43;;
21624;SDS011;10974;51.034;3.744;2023-07-31T15:31:55;1.63;;;1.50;;
21624;SDS011;10974;51.034;3.744;2023-07-31T15:34:22;2.13;;;1.93;;
21624;SDS011;10974;51.034;3.744;2023-07-31T15:36:48;1.50;;;1.40;;
21624;SDS011;10974;51.034;3.744;2023-07-31T15:39:14;1.60;;;1.37;;
21624;SDS011;10974;51.034;3.744;2023-07-31T15:41:40;2.97;;;1.80;;
21624;SDS011;10974;51.034;3.744;2023-07-31T15:44:07;1.30;;;1.20;;
21624;SDS011;10974;51.034;3.744;2023-07-31T15:46:33;2.50;;;1.57;;
21624;SDS011;10974;51.034;3.744;2023-07-31T15:48:59;2.83;;;1.43;;
21624;SDS011;10974;51.034;3.744;2023-07-31T15:51:25;1.43;;;1.33;;
21624;SDS011;10974;51.034;3.744;2023-07-31T15:53:52;1.93;;;1.33;;
21624;SDS011;10974;51.034;3.744;2023-07-31T15:56:18;3.33;;;1.50;;
21624;SDS011;10974;51.034;3.744;2023-07-31T15:58:44;1.60;;;1.50;;
21624;SDS011;10974;51.034;3.744;2023-07-31T16:01:11;1.70;;;1.40;;
21624;SDS011;10974;51.034;3.744;2023-07-31T16:03:37;1.40;;;1.30;;
21624;SDS011;10974;51.034;3.744;2023-07-31T16:06:03;2.80;;;1.20;;
21624;SDS011;10974;51.034;3.744;2023-07-31T16:08:29;1.70;;;1.13;;
21624;SDS011;10974;51.034;3.744;2023-07-31T16:10:55;1.53;;;1.37;;
21624;SDS011;10974;51.034;3.744;2023-07-31T16:13:21;1.47;;;1.37;;
21624;SDS011;10974;51.034;3.744;2023-07-31T16:15:47;1.43;;;1.23;;
21624;SDS011;10974;51.034;3.744;2023-07-31T16:18:13;1.93;;;1.27;;
21624;SDS011;10974;51.034;3.744;2023-07-31T16:20:39;2.50;;;1.17;;
21624;SDS011;10974;51.034;3.744;2023-07-31T16:23:05;1.70;;;1.60;;
21624;SDS011;10974;51.034;3.744;2023-07-31T16:25:32;1.30;;;1.20;;
21624;SDS011;10974;51.034;3.744;2023-07-31T16:27:58;1.63;;;1.53;;
21624;SDS011;10974;51.034;3.744;2023-07-31T16:30:24;1.80;;;1.20;;
21624;SDS011;10974;51.034;3.744;2023-07-31T16:32:50;1.40;;;1.30;;
21624;SDS011;10974;51.034;3.744;2023-07-31T16:35:16;1.20;;;1.10;;
21624;SDS011;10974;51.034;3.744;2023-07-31T16:37:42;1.40;;;1.30;;
21624;SDS011;10974;51.034;3.744;2023-07-31T16:40:09;2.33;;;1.20;;
21624;SDS011;10974;51.034;3.744;2023-07-31T16:42:35;1.77;;;1.37;;
21624;SDS011;10974;51.034;3.744;2023-07-31T16:45:01;3.37;;;2.67;;
21624;SDS011;10974;51.034;3.744;2023-07-31T16:47:27;2.03;;;1.83;;
21624;SDS011;10974;51.034;3.744;2023-07-31T16:49:54;1.20;;;1.10;;
21624;SDS011;10974;51.034;3.744;2023-07-31T16:52:20;1.23;;;1.13;;
21624;SDS011;10974;51.034;3.744;2023-07-31T16:54:46;1.20;;;1.10;;
21624;SDS011;10974;51.034;3.744;2023-07-31T16:57:12;1.00;;;1.00;;
21624;SDS011;10974;51.034;3.744;2023-07-31T16:59:38;1.70;;;1.10;;
21624;SDS011;10974;51.034;3.744;2023-07-31T17:02:04;1.20;;;1.10;;
21624;SDS011;10974;51.034;3.744;2023-07-31T17:04:31;1.40;;;1.30;;
21624;SDS011;10974;51.034;3.744;2023-07-31T17:06:57;2.27;;;1.30;;
21624;SDS011;10974;51.034;3.744;2023-07-31T17:09:24;0.87;;;0.87;;
21624;SDS011;10974;51.034;3.744;2023-07-31T17:11:50;1.30;;;0.90;;
21624;SDS011;10974;51.034;3.744;2023-07-31T17:14:16;1.73;;;1.10;;
21624;SDS011;10974;51.034;3.744;2023-07-31T17:16:42;1.30;;;1.20;;
21624;SDS011;10974;51.034;3.744;2023-07-31T17:19:08;2.33;;;1.07;;
21624;SDS011;10974;51.034;3.744;2023-07-31T17:21:34;2.07;;;1.10;;
21624;SDS011;10974;51.034;3.744;2023-07-31T17:24:01;1.47;;;1.10;;
21624;SDS011;10974;51.034;3.744;2023-07-31T17:26:27;1.00;;;0.90;;
21624;SDS011;10974;51.034;3.744;2023-07-31T17:28:53;0.80;;;0.80;;
21624;SDS011;10974;51.034;3.744;2023-07-31T17:31:20;1.20;;;1.00;;
21624;SDS011;10974;51.034;3.744;2023-07-31T17:33:46;1.40;;;1.00;;
21624;SDS011;10974;51.034;3.744;2023-07-31T17:36:12;1.10;;;1.00;;
21624;SDS011;10974;51.034;3.744;2023-07-31T17:38:38;1.10;;;0.90;;
21624;SDS011;10974;51.034;3.744;2023-07-31T17:41:05;0.90;;;0.90;;
21624;SDS011;10974;51.034;3.744;2023-07-31T17:43:31;3.57;;;0.90;;
21624;SDS011;10974;51.034;3.744;2023-07-31T17:45:57;1.20;;;1.10;;
21624;SDS011;10974;51.034;3.744;2023-07-31T17:48:23;1.20;;;1.10;;
21624;SDS011;10974;51.034;3.744;2023-07-31T17:50:49;1.60;;;1.20;;
21624;SDS011;10974;51.034;3.744;2023-07-31T17:53:16;1.10;;;1.00;;
21624;SDS011;10974;51.034;3.744;2023-07-31T17:55:42;1.47;;;1.37;;
21624;SDS011;10974;51.034;3.744;2023-07-31T17:58:08;1.67;;;1.17;;
21624;SDS011;10974;51.034;3.744;2023-07-31T18:00:35;1.53;;;1.40;;
21624;SDS011;10974;51.034;3.744;2023-07-31T18:03:01;1.93;;;1.30;;
21624;SDS011;10974;51.034;3.744;2023-07-31T18:05:27;1.83;;;1.20;;
21624;SDS011;10974;51.034;3.744;2023-07-31T18:07:53;1.33;;;1.20;;
21624;SDS011;10974;51.034;3.744;2023-07-31T18:10:19;1.20;;;1.10;;
21624;SDS011;10974;51.034;3.744;2023-07-31T18:12:45;1.50;;;1.40;;
21624;SDS011;10974;51.034;3.744;2023-07-31T18:15:11;1.20;;;1.10;;
21624;SDS011;10974;51.034;3.744;2023-07-31T18:17:37;3.10;;;1.40;;
21624;SDS011;10974;51.034;3.744;2023-07-31T18:20:03;2.10;;;1.67;;
21624;SDS011;10974;51.034;3.744;2023-07-31T18:22:31;3.30;;;1.30;;
21624;SDS011;10974;51.034;3.744;2023-07-31T18:24:58;1.40;;;1.30;;
21624;SDS011;10974;51.034;3.744;2023-07-31T18:27:24;1.50;;;1.40;;
21624;SDS011;10974;51.034;3.744;2023-07-31T18:29:50;1.30;;;1.20;;
21624;SDS011;10974;51.034;3.744;2023-07-31T18:32:16;1.87;;;1.20;;
21624;SDS011;10974;51.034;3.744;2023-07-31T18:34:42;3.93;;;2.30;;